sensor_id;sensor_type;location;lat;lon;timestamp;P1;durP1;ratioP1;P2;durP2;ratioP2
25083;SDS011;13075;55.682;37.564;2022-09-17T00:02:16;8.70;;;6.40;;
25083;SDS011;13075;55.682;37.564;2022-09-17T00:04:41;9.05;;;7.75;;
25083;SDS011;13075;55.682;37.564;2022-09-17T00:07:07;10.40;;;6.55;;
25083;SDS011;13075;55.682;37.564;2022-09-17T00:09:33;8.30;;;6.65;;
25083;SDS011;13075;55.682;37.564;2022-09-17T00:11:58;11.73;;;8.05;;
25083;SDS011;13075;55.682;37.564;2022-09-17T00:14:24;9.38;;;7.13;;
25083;SDS011;13075;55.682;37.564;2022-09-17T00:16:49;10.45;;;6.82;;
25083;SDS011;13075;55.682;37.564;2022-09-17T00:19:19;11.35;;;8.23;;
25083;SDS011;13075;55.682;37.564;2022-09-17T00:21:47;12.52;;;8.27;;
25083;SDS011;13075;55.682;37.564;2022-09-17T00:24:13;9.55;;;6.20;;
25083;SDS011;13075;55.682;37.564;2022-09-17T00:26:40;7.95;;;6.53;;
25083;SDS011;13075;55.682;37.564;2022-09-17T00:29:06;9.02;;;7.07;;
25083;SDS011;13075;55.682;37.564;2022-09-17T00:31:32;9.93;;;5.90;;
25083;SDS011;13075;55.682;37.564;2022-09-17T00:33:58;12.80;;;8.75;;
25083;SDS011;13075;55.682;37.564;2022-09-17T00:36:24;9.93;;;8.15;;
25083;SDS011;13075;55.682;37.564;2022-09-17T00:38:55;10.63;;;7.05;;
25083;SDS011;13075;55.682;37.564;2022-09-17T00:41:23;8.93;;;6.90;;
25083;SDS011;13075;55.682;37.564;2022-09-17T00:43:52;9.05;;;7.10;;
25083;SDS011;13075;55.682;37.564;2022-09-17T00:46:36;12.80;;;6.35;;
25083;SDS011;13075;55.682;37.564;2022-09-17T00:49:15;8.40;;;6.78;;
25083;SDS011;13075;55.682;37.564;2022-09-17T00:51:50;8.32;;;7.05;;
25083;SDS011;13075;55.682;37.564;2022-09-17T00:54:21;8.98;;;7.15;;
25083;SDS011;13075;55.682;37.564;2022-09-17T00:56:48;8.50;;;5.95;;
25083;SDS011;13075;55.682;37.564;2022-09-17T00:59:16;13.43;;;6.40;;
25083;SDS011;13075;55.682;37.564;2022-09-17T01:01:43;10.40;;;6.72;;
25083;SDS011;13075;55.682;37.564;2022-09-17T01:04:17;10.57;;;5.88;;
25083;SDS011;13075;55.682;37.564;2022-09-17T01:18:05;7.10;;;5.43;;
25083;SDS011;13075;55.682;37.564;2022-09-17T01:31:58;8.07;;;6.35;;
25083;SDS011;13075;55.682;37.564;2022-09-17T01:34:33;6.57;;;5.18;;
25083;SDS011;13075;55.682;37.564;2022-09-17T01:37:16;8.27;;;5.28;;
25083;SDS011;13075;55.682;37.564;2022-09-17T01:45:42;8.32;;;5.53;;
25083;SDS011;13075;55.682;37.564;2022-09-17T01:48:31;6.32;;;5.05;;
25083;SDS011;13075;55.682;37.564;2022-09-17T01:53:43;7.65;;;4.82;;
25083;SDS011;13075;55.682;37.564;2022-09-17T01:56:15;8.43;;;4.97;;
25083;SDS011;13075;55.682;37.564;2022-09-17T01:58:50;5.32;;;4.45;;
25083;SDS011;13075;55.682;37.564;2022-09-17T02:01:40;5.60;;;4.57;;
25083;SDS011;13075;55.682;37.564;2022-09-17T02:04:11;7.15;;;4.43;;
25083;SDS011;13075;55.682;37.564;2022-09-17T02:07:03;5.30;;;4.38;;
25083;SDS011;13075;55.682;37.564;2022-09-17T02:09:35;6.00;;;5.13;;
25083;SDS011;13075;55.682;37.564;2022-09-17T02:12:06;10.90;;;4.40;;
25083;SDS011;13075;55.682;37.564;2022-09-17T02:14:49;11.23;;;4.40;;
25083;SDS011;13075;55.682;37.564;2022-09-17T02:17:19;8.15;;;4.75;;
25083;SDS011;13075;55.682;37.564;2022-09-17T02:20:00;5.00;;;4.05;;
25083;SDS011;13075;55.682;37.564;2022-09-17T02:30:27;7.45;;;3.83;;
25083;SDS011;13075;55.682;37.564;2022-09-17T02:32:54;5.95;;;3.95;;
25083;SDS011;13075;55.682;37.564;2022-09-17T02:35:20;4.68;;;3.53;;
25083;SDS011;13075;55.682;37.564;2022-09-17T02:37:46;6.55;;;3.75;;
25083;SDS011;13075;55.682;37.564;2022-09-17T02:40:13;6.45;;;4.20;;
25083;SDS011;13075;55.682;37.564;2022-09-17T02:53:36;5.57;;;4.15;;
25083;SDS011;13075;55.682;37.564;2022-09-17T03:04:33;4.50;;;3.70;;
25083;SDS011;13075;55.682;37.564;2022-09-17T03:07:03;4.82;;;4.32;;
25083;SDS011;13075;55.682;37.564;2022-09-17T03:09:33;6.57;;;4.03;;
25083;SDS011;13075;55.682;37.564;2022-09-17T03:12:00;5.25;;;3.63;;
25083;SDS011;13075;55.682;37.564;2022-09-17T03:14:26;9.30;;;4.10;;
25083;SDS011;13075;55.682;37.564;2022-09-17T03:16:52;4.63;;;4.10;;
25083;SDS011;13075;55.682;37.564;2022-09-17T03:19:18;8.35;;;4.50;;
25083;SDS011;13075;55.682;37.564;2022-09-17T03:21:43;4.85;;;4.18;;
25083;SDS011;13075;55.682;37.564;2022-09-17T03:24:09;7.00;;;4.53;;
25083;SDS011;13075;55.682;37.564;2022-09-17T03:26:36;5.70;;;4.05;;
25083;SDS011;13075;55.682;37.564;2022-09-17T03:29:02;10.85;;;4.20;;
25083;SDS011;13075;55.682;37.564;2022-09-17T03:31:28;5.75;;;3.75;;
25083;SDS011;13075;55.682;37.564;2022-09-17T03:33:53;5.88;;;4.60;;
25083;SDS011;13075;55.682;37.564;2022-09-17T03:36:19;6.78;;;4.75;;
25083;SDS011;13075;55.682;37.564;2022-09-17T03:38:44;10.10;;;4.43;;
25083;SDS011;13075;55.682;37.564;2022-09-17T03:41:10;7.53;;;4.65;;
25083;SDS011;13075;55.682;37.564;2022-09-17T03:43:36;4.82;;;4.13;;
25083;SDS011;13075;55.682;37.564;2022-09-17T03:46:02;9.55;;;4.25;;
25083;SDS011;13075;55.682;37.564;2022-09-17T03:48:27;11.30;;;5.03;;
25083;SDS011;13075;55.682;37.564;2022-09-17T03:50:54;6.15;;;4.05;;
25083;SDS011;13075;55.682;37.564;2022-09-17T03:53:19;5.90;;;4.43;;
25083;SDS011;13075;55.682;37.564;2022-09-17T03:55:45;8.10;;;6.03;;
25083;SDS011;13075;55.682;37.564;2022-09-17T03:58:11;8.88;;;4.40;;
25083;SDS011;13075;55.682;37.564;2022-09-17T04:00:36;9.38;;;4.60;;
25083;SDS011;13075;55.682;37.564;2022-09-17T04:03:03;5.10;;;4.07;;
25083;SDS011;13075;55.682;37.564;2022-09-17T04:05:29;7.55;;;4.28;;
25083;SDS011;13075;55.682;37.564;2022-09-17T04:07:54;6.70;;;3.80;;
25083;SDS011;13075;55.682;37.564;2022-09-17T04:10:20;6.53;;;4.20;;
25083;SDS011;13075;55.682;37.564;2022-09-17T04:12:47;9.35;;;3.65;;
25083;SDS011;13075;55.682;37.564;2022-09-17T04:15:12;10.35;;;4.75;;
25083;SDS011;13075;55.682;37.564;2022-09-17T04:17:38;6.30;;;4.22;;
25083;SDS011;13075;55.682;37.564;2022-09-17T04:20:04;5.00;;;3.80;;
25083;SDS011;13075;55.682;37.564;2022-09-17T04:22:31;5.03;;;3.67;;
25083;SDS011;13075;55.682;37.564;2022-09-17T04:24:56;10.10;;;3.90;;
25083;SDS011;13075;55.682;37.564;2022-09-17T04:27:22;8.50;;;3.90;;
25083;SDS011;13075;55.682;37.564;2022-09-17T04:29:48;6.15;;;3.70;;
25083;SDS011;13075;55.682;37.564;2022-09-17T04:32:14;7.10;;;4.65;;
25083;SDS011;13075;55.682;37.564;2022-09-17T04:34:39;6.28;;;3.67;;
25083;SDS011;13075;55.682;37.564;2022-09-17T04:37:05;5.72;;;3.50;;
25083;SDS011;13075;55.682;37.564;2022-09-17T04:39:31;6.90;;;3.83;;
25083;SDS011;13075;55.682;37.564;2022-09-17T04:41:56;8.82;;;4.00;;
25083;SDS011;13075;55.682;37.564;2022-09-17T04:44:22;4.25;;;3.72;;
25083;SDS011;13075;55.682;37.564;2022-09-17T04:46:48;5.05;;;4.07;;
25083;SDS011;13075;55.682;37.564;2022-09-17T04:49:13;7.20;;;4.00;;
25083;SDS011;13075;55.682;37.564;2022-09-17T04:51:39;3.70;;;3.20;;
25083;SDS011;13075;55.682;37.564;2022-09-17T04:54:04;5.93;;;3.47;;
25083;SDS011;13075;55.682;37.564;2022-09-17T04:56:30;7.88;;;3.75;;
25083;SDS011;13075;55.682;37.564;2022-09-17T04:58:56;6.15;;;3.45;;
25083;SDS011;13075;55.682;37.564;2022-09-17T05:01:21;6.57;;;3.10;;
25083;SDS011;13075;55.682;37.564;2022-09-17T05:03:47;6.38;;;2.30;;
25083;SDS011;13075;55.682;37.564;2022-09-17T05:06:13;7.20;;;2.80;;
25083;SDS011;13075;55.682;37.564;2022-09-17T05:08:39;3.33;;;3.00;;
25083;SDS011;13075;55.682;37.564;2022-09-17T05:11:05;7.95;;;3.20;;
25083;SDS011;13075;55.682;37.564;2022-09-17T05:13:31;5.28;;;2.67;;
25083;SDS011;13075;55.682;37.564;2022-09-17T05:15:56;6.15;;;3.38;;
25083;SDS011;13075;55.682;37.564;2022-09-17T05:18:22;4.95;;;3.20;;
25083;SDS011;13075;55.682;37.564;2022-09-17T05:20:48;11.02;;;3.38;;
25083;SDS011;13075;55.682;37.564;2022-09-17T05:23:13;4.15;;;2.95;;
25083;SDS011;13075;55.682;37.564;2022-09-17T05:25:39;6.97;;;3.47;;
25083;SDS011;13075;55.682;37.564;2022-09-17T05:28:05;6.97;;;4.90;;
25083;SDS011;13075;55.682;37.564;2022-09-17T05:30:31;8.70;;;3.28;;
25083;SDS011;13075;55.682;37.564;2022-09-17T05:33:00;6.47;;;4.05;;
25083;SDS011;13075;55.682;37.564;2022-09-17T05:35:28;11.88;;;5.82;;
25083;SDS011;13075;55.682;37.564;2022-09-17T05:38:02;7.38;;;3.42;;
25083;SDS011;13075;55.682;37.564;2022-09-17T05:40:29;12.20;;;3.80;;
25083;SDS011;13075;55.682;37.564;2022-09-17T05:42:57;6.75;;;3.17;;
25083;SDS011;13075;55.682;37.564;2022-09-17T05:45:24;6.90;;;3.30;;
25083;SDS011;13075;55.682;37.564;2022-09-17T05:47:56;6.35;;;3.30;;
25083;SDS011;13075;55.682;37.564;2022-09-17T05:50:22;5.13;;;3.20;;
25083;SDS011;13075;55.682;37.564;2022-09-17T05:52:49;4.10;;;2.85;;
25083;SDS011;13075;55.682;37.564;2022-09-17T05:55:15;7.07;;;3.40;;
25083;SDS011;13075;55.682;37.564;2022-09-17T05:57:41;11.93;;;3.13;;
25083;SDS011;13075;55.682;37.564;2022-09-17T06:00:07;5.13;;;2.05;;
25083;SDS011;13075;55.682;37.564;2022-09-17T06:02:37;7.85;;;2.90;;
25083;SDS011;13075;55.682;37.564;2022-09-17T06:05:03;5.45;;;2.28;;
25083;SDS011;13075;55.682;37.564;2022-09-17T06:07:29;5.95;;;2.90;;
25083;SDS011;13075;55.682;37.564;2022-09-17T06:09:55;4.03;;;3.17;;
25083;SDS011;13075;55.682;37.564;2022-09-17T06:12:21;5.35;;;2.72;;
25083;SDS011;13075;55.682;37.564;2022-09-17T06:14:47;5.75;;;2.67;;
25083;SDS011;13075;55.682;37.564;2022-09-17T06:17:13;6.13;;;2.83;;
25083;SDS011;13075;55.682;37.564;2022-09-17T06:19:38;4.45;;;2.72;;
25083;SDS011;13075;55.682;37.564;2022-09-17T06:22:04;8.60;;;3.45;;
25083;SDS011;13075;55.682;37.564;2022-09-17T06:24:30;9.80;;;3.42;;
25083;SDS011;13075;55.682;37.564;2022-09-17T06:26:56;5.80;;;3.50;;
25083;SDS011;13075;55.682;37.564;2022-09-17T06:29:22;7.15;;;3.17;;
25083;SDS011;13075;55.682;37.564;2022-09-17T06:31:48;9.02;;;3.92;;
25083;SDS011;13075;55.682;37.564;2022-09-17T06:34:14;8.27;;;3.83;;
25083;SDS011;13075;55.682;37.564;2022-09-17T06:36:40;6.63;;;3.03;;
25083;SDS011;13075;55.682;37.564;2022-09-17T06:39:05;7.82;;;3.17;;
25083;SDS011;13075;55.682;37.564;2022-09-17T06:41:31;7.13;;;2.97;;
25083;SDS011;13075;55.682;37.564;2022-09-17T06:43:57;4.82;;;2.80;;
25083;SDS011;13075;55.682;37.564;2022-09-17T06:46:23;10.40;;;3.05;;
25083;SDS011;13075;55.682;37.564;2022-09-17T06:48:49;7.88;;;3.25;;
25083;SDS011;13075;55.682;37.564;2022-09-17T06:51:15;13.20;;;2.95;;
25083;SDS011;13075;55.682;37.564;2022-09-17T06:53:40;8.10;;;3.15;;
25083;SDS011;13075;55.682;37.564;2022-09-17T06:56:07;7.82;;;3.10;;
25083;SDS011;13075;55.682;37.564;2022-09-17T06:58:34;11.02;;;2.47;;
25083;SDS011;13075;55.682;37.564;2022-09-17T07:01:06;9.77;;;3.03;;
25083;SDS011;13075;55.682;37.564;2022-09-17T07:03:32;5.15;;;1.83;;
25083;SDS011;13075;55.682;37.564;2022-09-17T07:05:58;12.57;;;3.47;;
25083;SDS011;13075;55.682;37.564;2022-09-17T07:08:24;5.88;;;3.00;;
25083;SDS011;13075;55.682;37.564;2022-09-17T07:10:56;10.13;;;4.22;;
25083;SDS011;13075;55.682;37.564;2022-09-17T07:13:23;4.93;;;2.20;;
25083;SDS011;13075;55.682;37.564;2022-09-17T07:15:55;14.95;;;2.90;;
25083;SDS011;13075;55.682;37.564;2022-09-17T07:18:25;6.43;;;2.60;;
25083;SDS011;13075;55.682;37.564;2022-09-17T07:20:55;5.82;;;1.95;;
25083;SDS011;13075;55.682;37.564;2022-09-17T07:23:25;5.40;;;2.30;;
25083;SDS011;13075;55.682;37.564;2022-09-17T07:25:53;9.18;;;5.10;;
25083;SDS011;13075;55.682;37.564;2022-09-17T07:28:19;18.70;;;4.55;;
25083;SDS011;13075;55.682;37.564;2022-09-17T07:30:47;3.65;;;2.33;;
25083;SDS011;13075;55.682;37.564;2022-09-17T07:33:14;8.55;;;2.83;;
25083;SDS011;13075;55.682;37.564;2022-09-17T07:35:41;8.18;;;2.10;;
25083;SDS011;13075;55.682;37.564;2022-09-17T07:38:06;4.82;;;2.90;;
25083;SDS011;13075;55.682;37.564;2022-09-17T07:40:32;8.15;;;3.80;;
25083;SDS011;13075;55.682;37.564;2022-09-17T07:42:57;10.30;;;2.17;;
25083;SDS011;13075;55.682;37.564;2022-09-17T07:45:23;4.18;;;2.10;;
25083;SDS011;13075;55.682;37.564;2022-09-17T07:47:49;4.80;;;2.08;;
25083;SDS011;13075;55.682;37.564;2022-09-17T07:50:15;2.97;;;2.10;;
25083;SDS011;13075;55.682;37.564;2022-09-17T07:52:50;3.75;;;2.20;;
25083;SDS011;13075;55.682;37.564;2022-09-17T07:55:15;4.07;;;1.70;;
25083;SDS011;13075;55.682;37.564;2022-09-17T07:57:41;5.65;;;2.10;;
25083;SDS011;13075;55.682;37.564;2022-09-17T08:00:07;7.35;;;2.00;;
25083;SDS011;13075;55.682;37.564;2022-09-17T08:02:39;3.85;;;2.45;;
25083;SDS011;13075;55.682;37.564;2022-09-17T08:05:05;11.57;;;4.53;;
25083;SDS011;13075;55.682;37.564;2022-09-17T08:07:30;4.95;;;3.03;;
25083;SDS011;13075;55.682;37.564;2022-09-17T08:09:56;8.77;;;2.17;;
25083;SDS011;13075;55.682;37.564;2022-09-17T08:12:21;6.00;;;2.45;;
25083;SDS011;13075;55.682;37.564;2022-09-17T08:14:47;3.33;;;1.60;;
25083;SDS011;13075;55.682;37.564;2022-09-17T08:17:13;6.15;;;2.35;;
25083;SDS011;13075;55.682;37.564;2022-09-17T08:19:38;3.10;;;1.77;;
25083;SDS011;13075;55.682;37.564;2022-09-17T08:22:04;3.13;;;2.15;;
25083;SDS011;13075;55.682;37.564;2022-09-17T08:24:29;5.80;;;1.83;;
25083;SDS011;13075;55.682;37.564;2022-09-17T08:26:55;14.98;;;2.85;;
25083;SDS011;13075;55.682;37.564;2022-09-17T08:29:21;5.05;;;2.42;;
25083;SDS011;13075;55.682;37.564;2022-09-17T08:31:47;11.60;;;3.80;;
25083;SDS011;13075;55.682;37.564;2022-09-17T08:34:12;9.48;;;2.75;;
25083;SDS011;13075;55.682;37.564;2022-09-17T08:36:38;4.00;;;2.03;;
25083;SDS011;13075;55.682;37.564;2022-09-17T08:39:04;6.43;;;1.92;;
25083;SDS011;13075;55.682;37.564;2022-09-17T08:46:57;6.72;;;2.35;;
25083;SDS011;13075;55.682;37.564;2022-09-17T09:00:08;10.65;;;1.80;;
25083;SDS011;13075;55.682;37.564;2022-09-17T09:02:44;6.13;;;1.77;;
25083;SDS011;13075;55.682;37.564;2022-09-17T09:05:49;4.45;;;1.40;;
25083;SDS011;13075;55.682;37.564;2022-09-17T09:10:58;6.30;;;1.40;;
25083;SDS011;13075;55.682;37.564;2022-09-17T09:13:34;6.55;;;1.77;;
25083;SDS011;13075;55.682;37.564;2022-09-17T09:16:05;5.25;;;2.00;;
25083;SDS011;13075;55.682;37.564;2022-09-17T09:18:43;7.35;;;2.25;;
25083;SDS011;13075;55.682;37.564;2022-09-17T09:21:25;8.43;;;2.13;;
25083;SDS011;13075;55.682;37.564;2022-09-17T09:32:33;5.65;;;1.38;;
25083;SDS011;13075;55.682;37.564;2022-09-17T09:35:17;2.95;;;1.50;;
25083;SDS011;13075;55.682;37.564;2022-09-17T09:37:47;7.15;;;1.63;;
25083;SDS011;13075;55.682;37.564;2022-09-17T09:40:25;4.60;;;1.63;;
25083;SDS011;13075;55.682;37.564;2022-09-17T09:42:59;4.88;;;2.00;;
25083;SDS011;13075;55.682;37.564;2022-09-17T09:48:21;3.80;;;1.30;;
25083;SDS011;13075;55.682;37.564;2022-09-17T09:51:16;4.88;;;1.58;;
25083;SDS011;13075;55.682;37.564;2022-09-17T09:59:05;4.88;;;1.40;;
25083;SDS011;13075;55.682;37.564;2022-09-17T10:01:33;5.35;;;1.83;;
25083;SDS011;13075;55.682;37.564;2022-09-17T10:04:05;3.83;;;1.80;;
25083;SDS011;13075;55.682;37.564;2022-09-17T10:06:41;5.65;;;1.70;;
25083;SDS011;13075;55.682;37.564;2022-09-17T10:11:32;1.98;;;1.08;;
25083;SDS011;13075;55.682;37.564;2022-09-17T10:16:45;5.55;;;1.10;;
25083;SDS011;13075;55.682;37.564;2022-09-17T10:19:12;3.47;;;1.10;;
25083;SDS011;13075;55.682;37.564;2022-09-17T10:21:43;5.43;;;1.27;;
25083;SDS011;13075;55.682;37.564;2022-09-17T10:24:27;5.38;;;1.30;;
25083;SDS011;13075;55.682;37.564;2022-09-17T10:27:00;9.13;;;1.83;;
25083;SDS011;13075;55.682;37.564;2022-09-17T10:29:31;3.70;;;0.75;;
25083;SDS011;13075;55.682;37.564;2022-09-17T10:31:58;1.27;;;0.95;;
25083;SDS011;13075;55.682;37.564;2022-09-17T10:34:28;3.88;;;1.30;;
25083;SDS011;13075;55.682;37.564;2022-09-17T10:36:55;4.57;;;1.20;;
25083;SDS011;13075;55.682;37.564;2022-09-17T10:41:55;5.85;;;1.23;;
25083;SDS011;13075;55.682;37.564;2022-09-17T10:44:34;7.90;;;1.20;;
25083;SDS011;13075;55.682;37.564;2022-09-17T10:47:05;6.22;;;1.20;;
25083;SDS011;13075;55.682;37.564;2022-09-17T10:49:47;4.15;;;1.35;;
25083;SDS011;13075;55.682;37.564;2022-09-17T11:20:56;3.20;;;1.42;;
25083;SDS011;13075;55.682;37.564;2022-09-17T11:26:33;5.20;;;1.48;;
25083;SDS011;13075;55.682;37.564;2022-09-17T11:29:06;2.63;;;0.98;;
25083;SDS011;13075;55.682;37.564;2022-09-17T11:37:42;7.57;;;2.38;;
25083;SDS011;13075;55.682;37.564;2022-09-17T11:40:47;6.32;;;1.98;;
25083;SDS011;13075;55.682;37.564;2022-09-17T11:48:27;5.95;;;2.03;;
25083;SDS011;13075;55.682;37.564;2022-09-17T11:53:30;2.15;;;1.15;;
25083;SDS011;13075;55.682;37.564;2022-09-17T11:56:04;1.88;;;1.20;;
25083;SDS011;13075;55.682;37.564;2022-09-17T11:58:35;3.72;;;1.88;;
25083;SDS011;13075;55.682;37.564;2022-09-17T12:01:08;6.45;;;1.92;;
25083;SDS011;13075;55.682;37.564;2022-09-17T12:03:52;3.30;;;1.30;;
25083;SDS011;13075;55.682;37.564;2022-09-17T12:06:59;8.27;;;2.70;;
25083;SDS011;13075;55.682;37.564;2022-09-17T12:09:26;4.68;;;1.65;;
25083;SDS011;13075;55.682;37.564;2022-09-17T12:17:03;7.63;;;2.25;;
25083;SDS011;13075;55.682;37.564;2022-09-17T12:22:12;2.55;;;1.20;;
25083;SDS011;13075;55.682;37.564;2022-09-17T12:24:41;1.90;;;1.27;;
25083;SDS011;13075;55.682;37.564;2022-09-17T12:32:47;7.68;;;1.42;;
25083;SDS011;13075;55.682;37.564;2022-09-17T12:46:10;6.10;;;2.13;;
25083;SDS011;13075;55.682;37.564;2022-09-17T12:51:15;4.13;;;1.23;;
25083;SDS011;13075;55.682;37.564;2022-09-17T12:59:17;6.13;;;2.00;;
25083;SDS011;13075;55.682;37.564;2022-09-17T13:01:58;6.53;;;1.73;;
25083;SDS011;13075;55.682;37.564;2022-09-17T13:07:36;4.97;;;1.50;;
25083;SDS011;13075;55.682;37.564;2022-09-17T13:18:47;4.57;;;1.95;;
25083;SDS011;13075;55.682;37.564;2022-09-17T13:21:17;4.78;;;1.67;;
25083;SDS011;13075;55.682;37.564;2022-09-17T13:23:49;5.63;;;2.15;;
25083;SDS011;13075;55.682;37.564;2022-09-17T13:26:17;5.38;;;1.77;;
25083;SDS011;13075;55.682;37.564;2022-09-17T13:28:49;4.43;;;1.88;;
25083;SDS011;13075;55.682;37.564;2022-09-17T13:31:20;11.23;;;1.90;;
25083;SDS011;13075;55.682;37.564;2022-09-17T13:33:58;5.35;;;1.70;;
25083;SDS011;13075;55.682;37.564;2022-09-17T13:36:38;2.78;;;1.50;;
25083;SDS011;13075;55.682;37.564;2022-09-17T13:44:35;3.67;;;1.73;;
25083;SDS011;13075;55.682;37.564;2022-09-17T13:47:08;11.30;;;1.92;;
25083;SDS011;13075;55.682;37.564;2022-09-17T13:49:43;5.57;;;1.63;;
25083;SDS011;13075;55.682;37.564;2022-09-17T13:52:26;5.03;;;1.50;;
25083;SDS011;13075;55.682;37.564;2022-09-17T13:55:00;3.42;;;2.08;;
25083;SDS011;13075;55.682;37.564;2022-09-17T13:57:28;3.08;;;1.63;;
25083;SDS011;13075;55.682;37.564;2022-09-17T13:59:58;6.78;;;1.92;;
25083;SDS011;13075;55.682;37.564;2022-09-17T14:02:30;3.65;;;1.85;;
25083;SDS011;13075;55.682;37.564;2022-09-17T14:05:31;4.05;;;1.90;;
25083;SDS011;13075;55.682;37.564;2022-09-17T14:08:55;9.02;;;3.42;;
25083;SDS011;13075;55.682;37.564;2022-09-17T14:10:59;2.97;;;1.85;;
25083;SDS011;13075;55.682;37.564;2022-09-17T14:13:32;7.38;;;3.58;;
25083;SDS011;13075;55.682;37.564;2022-09-17T14:16:20;8.00;;;2.22;;
25083;SDS011;13075;55.682;37.564;2022-09-17T14:18:58;9.57;;;2.30;;
25083;SDS011;13075;55.682;37.564;2022-09-17T14:21:33;5.80;;;2.35;;
25083;SDS011;13075;55.682;37.564;2022-09-17T14:24:00;7.47;;;2.10;;
25083;SDS011;13075;55.682;37.564;2022-09-17T14:35:14;5.95;;;2.50;;
25083;SDS011;13075;55.682;37.564;2022-09-17T14:37:41;8.07;;;2.40;;
25083;SDS011;13075;55.682;37.564;2022-09-17T14:40:14;7.35;;;2.35;;
25083;SDS011;13075;55.682;37.564;2022-09-17T14:42:43;11.85;;;3.92;;
25083;SDS011;13075;55.682;37.564;2022-09-17T14:45:14;5.28;;;1.77;;
25083;SDS011;13075;55.682;37.564;2022-09-17T14:47:43;4.85;;;2.20;;
25083;SDS011;13075;55.682;37.564;2022-09-17T14:50:25;8.75;;;2.65;;
25083;SDS011;13075;55.682;37.564;2022-09-17T14:52:54;8.95;;;2.60;;
25083;SDS011;13075;55.682;37.564;2022-09-17T14:55:23;9.27;;;2.83;;
25083;SDS011;13075;55.682;37.564;2022-09-17T14:57:52;6.18;;;2.20;;
25083;SDS011;13075;55.682;37.564;2022-09-17T15:00:23;6.18;;;2.70;;
25083;SDS011;13075;55.682;37.564;2022-09-17T15:02:52;5.47;;;1.90;;
25083;SDS011;13075;55.682;37.564;2022-09-17T15:10:46;6.38;;;3.33;;
25083;SDS011;13075;55.682;37.564;2022-09-17T15:13:22;7.95;;;2.95;;
25083;SDS011;13075;55.682;37.564;2022-09-17T15:15:52;6.35;;;2.50;;
25083;SDS011;13075;55.682;37.564;2022-09-17T15:18:21;3.22;;;2.05;;
25083;SDS011;13075;55.682;37.564;2022-09-17T15:20:55;13.40;;;2.83;;
25083;SDS011;13075;55.682;37.564;2022-09-17T15:23:24;6.25;;;2.10;;
25083;SDS011;13075;55.682;37.564;2022-09-17T15:25:54;5.32;;;2.53;;
25083;SDS011;13075;55.682;37.564;2022-09-17T15:30:51;6.82;;;2.53;;
25083;SDS011;13075;55.682;37.564;2022-09-17T15:33:17;9.23;;;2.40;;
25083;SDS011;13075;55.682;37.564;2022-09-17T15:36:00;3.72;;;1.70;;
25083;SDS011;13075;55.682;37.564;2022-09-17T15:38:46;13.90;;;2.10;;
25083;SDS011;13075;55.682;37.564;2022-09-17T15:43:45;8.10;;;2.30;;
25083;SDS011;13075;55.682;37.564;2022-09-17T15:48:53;10.70;;;2.42;;
25083;SDS011;13075;55.682;37.564;2022-09-17T15:51:24;6.07;;;2.38;;
25083;SDS011;13075;55.682;37.564;2022-09-17T15:53:52;9.10;;;2.30;;
25083;SDS011;13075;55.682;37.564;2022-09-17T15:56:25;5.18;;;2.30;;
25083;SDS011;13075;55.682;37.564;2022-09-17T16:06:34;8.07;;;3.75;;
25083;SDS011;13075;55.682;37.564;2022-09-17T16:09:00;10.65;;;5.43;;
25083;SDS011;13075;55.682;37.564;2022-09-17T16:11:28;8.70;;;3.58;;
25083;SDS011;13075;55.682;37.564;2022-09-17T16:13:55;7.38;;;3.15;;
25083;SDS011;13075;55.682;37.564;2022-09-17T16:16:24;7.03;;;4.95;;
25083;SDS011;13075;55.682;37.564;2022-09-17T16:18:54;10.70;;;4.13;;
25083;SDS011;13075;55.682;37.564;2022-09-17T16:21:19;14.68;;;5.57;;
25083;SDS011;13075;55.682;37.564;2022-09-17T16:23:45;10.00;;;4.40;;
25083;SDS011;13075;55.682;37.564;2022-09-17T16:26:17;11.50;;;4.75;;
25083;SDS011;13075;55.682;37.564;2022-09-17T16:28:45;10.38;;;5.10;;
25083;SDS011;13075;55.682;37.564;2022-09-17T16:31:14;9.15;;;4.45;;
25083;SDS011;13075;55.682;37.564;2022-09-17T16:33:40;29.52;;;15.73;;
25083;SDS011;13075;55.682;37.564;2022-09-17T16:36:06;10.20;;;5.15;;
25083;SDS011;13075;55.682;37.564;2022-09-17T16:38:31;13.13;;;4.93;;
25083;SDS011;13075;55.682;37.564;2022-09-17T16:40:58;8.52;;;4.80;;
25083;SDS011;13075;55.682;37.564;2022-09-17T16:43:23;12.30;;;4.63;;
25083;SDS011;13075;55.682;37.564;2022-09-17T16:45:58;8.70;;;4.30;;
25083;SDS011;13075;55.682;37.564;2022-09-17T16:48:37;13.25;;;4.07;;
25083;SDS011;13075;55.682;37.564;2022-09-17T16:51:06;7.82;;;4.63;;
25083;SDS011;13075;55.682;37.564;2022-09-17T16:53:32;8.10;;;4.50;;
25083;SDS011;13075;55.682;37.564;2022-09-17T16:55:59;18.20;;;5.10;;
25083;SDS011;13075;55.682;37.564;2022-09-17T16:58:24;10.27;;;4.88;;
25083;SDS011;13075;55.682;37.564;2022-09-17T17:00:50;15.18;;;4.80;;
25083;SDS011;13075;55.682;37.564;2022-09-17T17:03:16;15.27;;;5.72;;
25083;SDS011;13075;55.682;37.564;2022-09-17T17:05:41;11.77;;;5.93;;
25083;SDS011;13075;55.682;37.564;2022-09-17T17:08:07;7.85;;;3.90;;
25083;SDS011;13075;55.682;37.564;2022-09-17T17:10:34;14.07;;;4.78;;
25083;SDS011;13075;55.682;37.564;2022-09-17T17:13:02;9.90;;;4.68;;
25083;SDS011;13075;55.682;37.564;2022-09-17T17:15:28;7.72;;;4.68;;
25083;SDS011;13075;55.682;37.564;2022-09-17T17:17:54;8.63;;;4.97;;
25083;SDS011;13075;55.682;37.564;2022-09-17T17:20:20;12.25;;;5.05;;
25083;SDS011;13075;55.682;37.564;2022-09-17T17:22:46;10.48;;;4.35;;
25083;SDS011;13075;55.682;37.564;2022-09-17T17:25:12;9.85;;;4.43;;
25083;SDS011;13075;55.682;37.564;2022-09-17T17:27:38;16.33;;;4.40;;
25083;SDS011;13075;55.682;37.564;2022-09-17T17:30:05;10.80;;;4.88;;
25083;SDS011;13075;55.682;37.564;2022-09-17T17:32:32;7.68;;;4.47;;
25083;SDS011;13075;55.682;37.564;2022-09-17T17:34:59;8.65;;;4.28;;
25083;SDS011;13075;55.682;37.564;2022-09-17T17:37:25;7.82;;;4.18;;
25083;SDS011;13075;55.682;37.564;2022-09-17T17:39:51;11.02;;;4.05;;
25083;SDS011;13075;55.682;37.564;2022-09-17T17:42:18;5.47;;;3.20;;
25083;SDS011;13075;55.682;37.564;2022-09-17T17:44:44;8.55;;;3.42;;
25083;SDS011;13075;55.682;37.564;2022-09-17T17:47:09;7.53;;;3.05;;
25083;SDS011;13075;55.682;37.564;2022-09-17T17:49:35;10.18;;;3.30;;
25083;SDS011;13075;55.682;37.564;2022-09-17T17:52:01;6.45;;;3.05;;
25083;SDS011;13075;55.682;37.564;2022-09-17T17:54:26;10.57;;;4.38;;
25083;SDS011;13075;55.682;37.564;2022-09-17T17:56:56;3.47;;;2.67;;
25083;SDS011;13075;55.682;37.564;2022-09-17T17:59:21;4.32;;;3.30;;
25083;SDS011;13075;55.682;37.564;2022-09-17T18:01:47;6.63;;;3.22;;
25083;SDS011;13075;55.682;37.564;2022-09-17T18:04:13;6.90;;;2.70;;
25083;SDS011;13075;55.682;37.564;2022-09-17T18:06:38;4.75;;;2.80;;
25083;SDS011;13075;55.682;37.564;2022-09-17T18:09:04;6.97;;;3.40;;
25083;SDS011;13075;55.682;37.564;2022-09-17T18:11:31;10.77;;;3.55;;
25083;SDS011;13075;55.682;37.564;2022-09-17T18:13:58;10.93;;;3.55;;
25083;SDS011;13075;55.682;37.564;2022-09-17T18:16:26;4.43;;;2.83;;
25083;SDS011;13075;55.682;37.564;2022-09-17T18:18:54;6.00;;;3.67;;
25083;SDS011;13075;55.682;37.564;2022-09-17T18:21:24;8.65;;;2.88;;
25083;SDS011;13075;55.682;37.564;2022-09-17T18:23:50;6.78;;;3.85;;
25083;SDS011;13075;55.682;37.564;2022-09-17T18:26:18;5.07;;;2.75;;
25083;SDS011;13075;55.682;37.564;2022-09-17T18:28:45;12.73;;;6.60;;
25083;SDS011;13075;55.682;37.564;2022-09-17T18:31:18;7.35;;;2.80;;